Clam Gulch, Alaska
Current Conditions -  °F | °C
As of 2:36 PM on Saturday 22 Nov 2014 (Local Time) from PASX Reporting Station
Overcast Overcast  
Wind Chill: 30°   Ceiling: 3800
Heat Index: 34°   Visibility: 10mi
Dew Point: 21°   Wind: 5mph
Humidity: 60%   Direction: 100°E
Pressure: 29.11"   Gusts: NA
Location:  60.25°N, 151.38°W
Report Text: PASX 222336Z AUTO 10004KT 10SM BKN038 OVC045 01/M06 A2911 RMK AO1
Loading
Personal Weather Stations






























Interactive Weather Map New forecast layout! Learn more

10-Day Weather Forecast

Advertisements
Track Severe Weather on mobile